createdAt,value
2023-01-29T00:01:31.392Z,6.30
2023-01-29T00:04:14.314Z,4.60
2023-01-29T00:06:57.104Z,5.95
2023-01-29T00:09:41.336Z,5.45
2023-01-29T00:12:24.423Z,3.95
2023-01-29T00:15:08.329Z,5.10
2023-01-29T00:17:51.163Z,3.90
2023-01-29T00:20:34.046Z,3.72
2023-01-29T00:23:16.967Z,4.50
2023-01-29T00:26:01.996Z,5.00
2023-01-29T00:28:44.859Z,7.40
2023-01-29T00:31:28.121Z,5.20
2023-01-29T00:34:11.033Z,7.25
2023-01-29T00:37:04.276Z,5.72
2023-01-29T00:39:48.341Z,4.55
2023-01-29T00:42:49.563Z,3.35
2023-01-29T00:45:32.948Z,3.13
2023-01-29T00:48:15.739Z,3.17
2023-01-29T00:50:58.556Z,3.30
2023-01-29T00:53:41.360Z,3.15
2023-01-29T00:56:24.127Z,3.83
2023-01-29T00:59:08.277Z,4.80
2023-01-29T01:02:08.499Z,2.58
2023-01-29T01:04:51.554Z,3.25
2023-01-29T01:07:34.858Z,2.97
2023-01-29T01:10:21.939Z,3.88
2023-01-29T01:13:07.609Z,5.15
2023-01-29T01:15:51.934Z,4.55
2023-01-29T01:18:34.748Z,5.10
2023-01-29T01:21:17.622Z,2.88
2023-01-29T01:24:00.414Z,3.25
2023-01-29T01:26:43.943Z,4.20
2023-01-29T01:29:26.711Z,4.68
2023-01-29T01:32:10.872Z,2.80
2023-01-29T01:34:54.098Z,3.42
2023-01-29T01:37:38.715Z,3.50
2023-01-29T01:40:22.294Z,2.83
2023-01-29T01:43:07.455Z,3.80
2023-01-29T01:45:50.300Z,3.28
2023-01-29T01:48:34.835Z,3.65
2023-01-29T01:51:17.979Z,5.40
2023-01-29T01:54:07.009Z,5.07
2023-01-29T01:56:55.518Z,6.07
2023-01-29T01:59:41.035Z,6.75
2023-01-29T02:02:43.348Z,7.97
2023-01-29T02:05:46.037Z,6.88
2023-01-29T02:08:54.348Z,5.72
2023-01-29T02:11:37.838Z,8.02
2023-01-29T02:14:21.259Z,5.37
2023-01-29T02:17:04.288Z,5.70
2023-01-29T02:19:54.089Z,6.80
2023-01-29T02:23:16.520Z,6.80
2023-01-29T02:26:14.570Z,5.93
2023-01-29T02:29:22.357Z,3.92
2023-01-29T02:32:17.256Z,3.45
2023-01-29T02:35:29.735Z,3.85
2023-01-29T02:38:18.919Z,3.72
2023-01-29T02:41:12.730Z,3.95
2023-01-29T02:44:05.954Z,4.57
2023-01-29T02:46:57.140Z,3.47
2023-01-29T02:49:49.283Z,7.60
2023-01-29T02:52:37.557Z,5.13
2023-01-29T02:55:25.917Z,5.28
2023-01-29T02:58:14.560Z,4.60
2023-01-29T03:01:03.014Z,5.13
2023-01-29T03:03:53.678Z,4.70
2023-01-29T03:06:40.164Z,5.93
2023-01-29T03:09:28.822Z,6.57
2023-01-29T03:12:28.517Z,10.45
2023-01-29T03:15:17.675Z,8.20
2023-01-29T03:18:18.639Z,6.32
2023-01-29T03:21:26.493Z,6.20
2023-01-29T03:24:31.585Z,6.53
2023-01-29T03:27:35.576Z,8.35
2023-01-29T03:30:38.506Z,7.18
2023-01-29T03:33:50.803Z,7.13
2023-01-29T03:36:39.875Z,9.50
2023-01-29T03:39:25.173Z,10.32
2023-01-29T03:42:18.164Z,9.48
2023-01-29T03:45:09.841Z,10.02
2023-01-29T03:48:05.896Z,8.35
2023-01-29T03:50:58.992Z,10.00
2023-01-29T03:53:45.470Z,10.05
2023-01-29T03:56:40.149Z,15.32
2023-01-29T04:02:31.194Z,11.23
2023-01-29T04:05:21.201Z,9.38
2023-01-29T04:08:29.938Z,9.30
2023-01-29T04:11:19.654Z,8.48
2023-01-29T04:14:03.751Z,10.43
2023-01-29T04:16:51.928Z,19.67
2023-01-29T04:22:36.893Z,10.82
2023-01-29T04:25:26.715Z,15.65
2023-01-29T04:28:20.320Z,11.48
2023-01-29T04:31:10.066Z,8.52
2023-01-29T04:34:06.150Z,7.25
2023-01-29T04:37:01.152Z,8.52
2023-01-29T04:39:50.495Z,8.10
2023-01-29T04:42:42.635Z,8.98
2023-01-29T04:45:36.301Z,9.02
2023-01-29T04:48:26.032Z,12.00
2023-01-29T04:51:13.995Z,17.83
2023-01-29T04:54:02.624Z,15.35
2023-01-29T04:56:52.295Z,16.25
2023-01-29T04:59:40.571Z,13.00
2023-01-29T05:02:25.700Z,8.60
2023-01-29T05:05:10.571Z,7.60
2023-01-29T05:07:54.100Z,6.45
2023-01-29T05:10:37.051Z,9.50
2023-01-29T05:13:21.696Z,18.60
2023-01-29T05:16:09.778Z,16.77
2023-01-29T05:18:53.219Z,14.80
2023-01-29T05:21:36.010Z,14.98
2023-01-29T05:24:21.246Z,9.60
2023-01-29T05:27:22.286Z,12.35
2023-01-29T05:30:06.415Z,17.27
2023-01-29T05:32:50.559Z,17.27
2023-01-29T05:35:33.995Z,13.38
2023-01-29T05:38:18.070Z,16.40
2023-01-29T05:41:00.996Z,17.27
2023-01-29T05:43:43.830Z,13.30
2023-01-29T05:46:26.642Z,13.25
2023-01-29T05:49:10.821Z,13.20
2023-01-29T05:51:53.579Z,11.95
2023-01-29T05:54:36.389Z,12.00
2023-01-29T05:57:19.154Z,12.98
2023-01-29T06:00:01.984Z,12.43
2023-01-29T06:02:55.042Z,11.73
2023-01-29T06:05:40.261Z,12.52
2023-01-29T06:08:23.052Z,9.95
2023-01-29T06:11:09.566Z,11.98
2023-01-29T06:13:52.374Z,10.18
2023-01-29T06:16:35.226Z,10.32
2023-01-29T06:19:18.904Z,11.27
2023-01-29T06:22:02.999Z,10.68
2023-01-29T06:24:45.806Z,11.00
2023-01-29T06:27:28.645Z,10.02
2023-01-29T06:30:12.604Z,12.85
2023-01-29T06:32:58.754Z,10.43
2023-01-29T06:35:41.613Z,12.07
2023-01-29T06:38:26.389Z,11.68
2023-01-29T06:41:11.441Z,13.10
2023-01-29T06:43:54.362Z,11.52
2023-01-29T06:46:37.212Z,11.00
2023-01-29T06:49:20.003Z,11.05
2023-01-29T06:52:02.779Z,12.05
2023-01-29T06:54:47.388Z,12.88
2023-01-29T06:57:30.618Z,12.75
2023-01-29T07:00:14.967Z,12.25
2023-01-29T07:02:57.902Z,14.23
2023-01-29T07:05:40.963Z,10.43
2023-01-29T07:08:23.734Z,17.50
2023-01-29T07:11:08.458Z,12.35
2023-01-29T07:13:51.241Z,18.63
2023-01-29T07:16:34.385Z,23.13
2023-01-29T07:19:17.724Z,27.20
2023-01-29T07:22:02.410Z,22.87
2023-01-29T07:24:45.247Z,22.30
2023-01-29T07:27:29.377Z,24.88
2023-01-29T07:30:13.406Z,16.85
2023-01-29T07:32:56.421Z,30.77
2023-01-29T07:35:40.982Z,16.70
2023-01-29T07:38:23.780Z,14.30
2023-01-29T07:41:07.425Z,13.55
2023-01-29T07:43:51.531Z,66.10
2023-01-29T07:46:34.395Z,27.67
2023-01-29T07:49:17.257Z,18.58
2023-01-29T07:52:00.268Z,43.55
2023-01-29T07:54:43.070Z,18.27
2023-01-29T07:57:26.515Z,16.85
2023-01-29T08:00:12.396Z,11.40
2023-01-29T08:02:55.230Z,10.82
2023-01-29T08:05:38.174Z,10.30
2023-01-29T08:08:20.901Z,11.05
2023-01-29T08:11:05.666Z,8.20
2023-01-29T08:13:48.514Z,9.25
2023-01-29T08:16:32.687Z,9.63
2023-01-29T08:19:15.607Z,10.05
2023-01-29T08:21:58.415Z,9.30
2023-01-29T08:24:53.487Z,10.82
2023-01-29T08:27:42.965Z,11.60
2023-01-29T08:30:25.991Z,10.68
2023-01-29T08:33:10.126Z,9.85
2023-01-29T08:35:53.040Z,8.50
2023-01-29T08:38:36.119Z,8.43
2023-01-29T08:41:18.938Z,7.45
2023-01-29T08:44:04.275Z,7.68
2023-01-29T08:46:47.107Z,9.23
2023-01-29T08:49:31.209Z,6.60
2023-01-29T08:52:14.000Z,8.57
2023-01-29T08:54:56.779Z,7.82
2023-01-29T08:57:40.166Z,8.73
2023-01-29T09:00:23.284Z,9.83
2023-01-29T09:03:07.814Z,7.78
2023-01-29T09:05:52.187Z,7.43
2023-01-29T09:08:35.059Z,8.95
2023-01-29T09:11:17.913Z,8.43
2023-01-29T09:14:00.704Z,7.45
2023-01-29T09:16:43.556Z,6.60
2023-01-29T09:19:26.365Z,8.30
2023-01-29T09:22:11.863Z,9.13
2023-01-29T09:24:54.877Z,11.95
2023-01-29T09:27:38.013Z,12.10
2023-01-29T09:30:20.760Z,7.95
2023-01-29T09:33:03.542Z,8.65
2023-01-29T09:35:47.157Z,8.65
2023-01-29T09:38:31.565Z,9.43
2023-01-29T09:41:27.821Z,11.43
2023-01-29T09:44:18.624Z,8.60
2023-01-29T09:47:06.072Z,10.90
2023-01-29T09:49:53.607Z,9.90
2023-01-29T09:52:39.889Z,8.48
2023-01-29T09:55:28.135Z,9.10
2023-01-29T09:58:19.580Z,12.07
2023-01-29T10:01:14.058Z,9.38
2023-01-29T10:04:18.154Z,11.70
2023-01-29T10:07:23.637Z,12.60
2023-01-29T10:10:34.611Z,8.38
2023-01-29T10:13:28.370Z,6.45
2023-01-29T10:16:28.588Z,8.77
2023-01-29T10:19:25.342Z,10.07
2023-01-29T10:22:30.146Z,9.93
2023-01-29T10:25:15.679Z,6.75
2023-01-29T10:28:02.072Z,5.00
2023-01-29T10:30:48.824Z,4.78
2023-01-29T10:33:49.344Z,5.28
2023-01-29T10:36:45.072Z,4.00
2023-01-29T10:39:30.848Z,5.80
2023-01-29T10:42:24.353Z,6.68
2023-01-29T10:45:22.304Z,4.90
2023-01-29T10:48:33.897Z,6.03
2023-01-29T10:51:30.958Z,8.23
2023-01-29T10:54:33.016Z,4.20
2023-01-29T10:57:24.251Z,4.80
2023-01-29T11:00:15.171Z,5.13
2023-01-29T11:02:58.230Z,4.13
2023-01-29T11:05:46.272Z,5.38
2023-01-29T11:08:35.443Z,4.32
2023-01-29T11:11:21.990Z,5.93
2023-01-29T11:14:09.008Z,5.22
2023-01-29T11:16:53.722Z,4.15
2023-01-29T11:19:42.154Z,4.70
2023-01-29T11:22:26.269Z,4.68
2023-01-29T11:25:12.006Z,5.85
2023-01-29T11:27:57.584Z,5.07
2023-01-29T11:30:42.474Z,3.88
2023-01-29T11:33:26.894Z,5.13
2023-01-29T11:39:18.601Z,5.43
2023-01-29T11:42:03.747Z,6.35
2023-01-29T11:44:46.591Z,3.85
2023-01-29T11:47:31.485Z,4.40
2023-01-29T11:50:22.922Z,4.55
2023-01-29T11:53:07.048Z,7.60
2023-01-29T11:55:51.650Z,4.22
2023-01-29T11:58:36.945Z,4.40
2023-01-29T12:01:31.349Z,5.72
2023-01-29T12:04:20.560Z,4.25
2023-01-29T12:07:04.687Z,4.38
2023-01-29T12:09:53.961Z,4.05
2023-01-29T12:12:41.962Z,3.85
2023-01-29T12:15:25.956Z,4.13
2023-01-29T12:18:15.384Z,4.18
2023-01-29T12:21:02.711Z,6.53
2023-01-29T12:23:53.216Z,3.40
2023-01-29T12:26:39.421Z,3.00
2023-01-29T12:29:33.007Z,4.97
2023-01-29T12:32:28.915Z,4.55
2023-01-29T12:35:19.626Z,4.80
2023-01-29T12:38:06.191Z,4.70
2023-01-29T12:40:55.294Z,3.58
2023-01-29T12:43:45.860Z,4.88
2023-01-29T12:46:32.875Z,3.88
2023-01-29T12:49:20.285Z,5.10
2023-01-29T12:52:13.490Z,3.55
2023-01-29T12:55:01.814Z,3.58
2023-01-29T12:57:50.185Z,3.38
2023-01-29T13:00:36.652Z,2.80
2023-01-29T13:03:25.621Z,4.00
2023-01-29T13:06:13.648Z,4.55
2023-01-29T13:09:00.272Z,5.10
2023-01-29T13:11:50.769Z,3.55
2023-01-29T13:14:43.806Z,3.80
2023-01-29T13:17:32.152Z,3.40
2023-01-29T13:20:20.586Z,4.00
2023-01-29T13:23:13.864Z,2.88
2023-01-29T13:25:56.813Z,3.80
2023-01-29T13:28:40.564Z,3.85
2023-01-29T13:31:34.134Z,3.95
2023-01-29T13:34:22.618Z,5.20
2023-01-29T13:37:12.300Z,5.93
2023-01-29T13:39:57.335Z,4.72
2023-01-29T13:42:44.965Z,3.13
2023-01-29T13:45:34.956Z,3.40
2023-01-29T13:48:25.164Z,3.90
2023-01-29T13:51:15.610Z,3.65
2023-01-29T13:54:03.692Z,3.42
2023-01-29T13:56:59.231Z,2.35
2023-01-29T13:59:53.973Z,3.80
2023-01-29T14:02:36.774Z,4.93
2023-01-29T14:05:41.127Z,4.10
2023-01-29T14:08:42.667Z,4.55
2023-01-29T14:11:35.716Z,2.90
2023-01-29T14:14:52.376Z,3.63
2023-01-29T14:17:37.305Z,2.95
2023-01-29T14:20:27.665Z,3.28
2023-01-29T14:23:29.324Z,3.00
2023-01-29T14:26:25.841Z,5.40
2023-01-29T14:29:32.494Z,7.35
2023-01-29T14:32:22.273Z,6.38
2023-01-29T14:35:11.589Z,5.07
2023-01-29T14:37:57.389Z,4.15
2023-01-29T14:40:47.712Z,5.22
2023-01-29T14:43:30.659Z,5.65
2023-01-29T14:46:44.535Z,5.13
2023-01-29T14:49:53.083Z,4.03
2023-01-29T14:52:40.503Z,4.32
2023-01-29T14:55:30.849Z,4.03
2023-01-29T14:58:19.840Z,5.60
2023-01-29T15:01:05.997Z,4.93
2023-01-29T15:03:51.785Z,4.00
2023-01-29T15:06:42.484Z,4.68
2023-01-29T15:09:36.775Z,3.50
2023-01-29T15:12:26.638Z,3.75
2023-01-29T15:15:18.486Z,2.65
2023-01-29T15:18:05.894Z,4.53
2023-01-29T15:20:49.022Z,3.65
2023-01-29T15:23:34.987Z,4.05
2023-01-29T15:26:21.525Z,4.90
2023-01-29T15:29:05.930Z,4.43
2023-01-29T15:31:50.203Z,4.30
2023-01-29T15:34:33.305Z,5.75
2023-01-29T15:37:26.923Z,4.57
2023-01-29T15:40:17.468Z,5.90
2023-01-29T15:43:00.775Z,4.72
2023-01-29T15:45:44.512Z,3.97
2023-01-29T15:48:34.043Z,4.45
2023-01-29T15:51:18.582Z,3.90
2023-01-29T15:54:04.445Z,5.28
2023-01-29T15:56:50.884Z,4.30
2023-01-29T15:59:39.638Z,4.20
2023-01-29T16:02:37.339Z,3.90
2023-01-29T16:05:24.983Z,4.47
2023-01-29T16:08:12.944Z,3.90
2023-01-29T16:10:58.876Z,3.63
2023-01-29T16:13:44.256Z,4.57
2023-01-29T16:16:29.020Z,4.13
2023-01-29T16:19:22.167Z,4.85
2023-01-29T16:22:09.043Z,5.90
2023-01-29T16:24:53.219Z,4.35
2023-01-29T16:27:36.432Z,41.60
2023-01-29T16:30:20.005Z,16.58
2023-01-29T16:33:04.921Z,9.15
2023-01-29T16:35:52.798Z,9.38
2023-01-29T16:38:37.279Z,18.63
2023-01-29T16:41:32.081Z,16.10
2023-01-29T16:44:33.738Z,15.07
2023-01-29T16:47:25.003Z,12.48
2023-01-29T16:50:24.896Z,9.90
2023-01-29T16:53:13.880Z,18.45
2023-01-29T16:56:04.251Z,22.02
2023-01-29T16:58:51.669Z,19.77
2023-01-29T17:01:37.048Z,12.13
2023-01-29T17:04:20.600Z,9.98
2023-01-29T17:07:03.815Z,21.27
2023-01-29T17:09:52.484Z,16.27
2023-01-29T17:12:38.759Z,14.70
2023-01-29T17:15:34.947Z,8.50
2023-01-29T17:18:20.557Z,8.50
2023-01-29T17:21:03.357Z,7.85
2023-01-29T17:23:46.217Z,8.88
2023-01-29T17:26:29.061Z,5.88
2023-01-29T17:29:18.717Z,6.40
2023-01-29T17:32:01.715Z,6.78
2023-01-29T17:34:44.506Z,4.95
2023-01-29T17:37:27.441Z,5.65
2023-01-29T17:40:26.839Z,5.82
2023-01-29T17:43:11.751Z,8.57
2023-01-29T17:45:56.011Z,6.57
2023-01-29T17:48:38.839Z,7.45
2023-01-29T17:51:24.046Z,5.40
2023-01-29T17:54:07.722Z,6.53
2023-01-29T17:56:51.456Z,4.88
2023-01-29T17:59:34.974Z,4.13
2023-01-29T18:02:29.603Z,5.67
2023-01-29T18:05:13.561Z,7.60
2023-01-29T18:07:56.345Z,4.20
2023-01-29T18:10:39.155Z,5.93
2023-01-29T18:13:21.972Z,5.28
2023-01-29T18:16:04.899Z,5.00
2023-01-29T18:18:49.404Z,6.68
2023-01-29T18:24:14.808Z,8.40
2023-01-29T18:26:57.964Z,7.55
2023-01-29T18:29:40.960Z,6.68
2023-01-29T18:32:23.743Z,12.98
2023-01-29T18:35:09.158Z,13.07
2023-01-29T18:37:52.397Z,8.73
2023-01-29T18:40:35.487Z,7.43
2023-01-29T18:43:18.253Z,5.60
2023-01-29T18:46:01.224Z,5.13
2023-01-29T18:48:44.041Z,8.75
2023-01-29T18:51:28.208Z,6.15
2023-01-29T18:54:12.791Z,7.20
2023-01-29T18:57:13.105Z,5.95
2023-01-29T18:59:58.447Z,6.00
2023-01-29T19:02:42.920Z,5.47
2023-01-29T19:05:25.793Z,6.22
2023-01-29T19:08:10.376Z,7.80
2023-01-29T19:10:53.201Z,6.82
2023-01-29T19:13:37.961Z,5.95
2023-01-29T19:16:20.827Z,8.00
2023-01-29T19:19:03.810Z,6.20
2023-01-29T19:21:46.763Z,7.38
2023-01-29T19:24:36.243Z,8.90
2023-01-29T19:27:19.070Z,7.65
2023-01-29T19:30:02.164Z,6.45
2023-01-29T19:32:44.966Z,6.47
2023-01-29T19:35:28.470Z,7.78
2023-01-29T19:38:11.305Z,8.80
2023-01-29T19:40:56.144Z,7.03
2023-01-29T19:43:41.888Z,6.93
2023-01-29T19:46:24.721Z,8.73
2023-01-29T19:49:07.802Z,6.00
2023-01-29T19:51:50.612Z,6.65
2023-01-29T19:54:33.403Z,6.63
2023-01-29T19:57:17.559Z,7.45
2023-01-29T20:00:01.161Z,7.20
2023-01-29T20:02:47.088Z,9.18
2023-01-29T20:05:29.872Z,10.48
2023-01-29T20:08:12.660Z,7.72
2023-01-29T20:10:55.503Z,6.97
2023-01-29T20:13:39.669Z,8.93
2023-01-29T20:16:23.023Z,8.20
2023-01-29T20:19:13.749Z,8.07
2023-01-29T20:21:57.940Z,8.95
2023-01-29T20:24:42.643Z,9.88
2023-01-29T20:27:25.624Z,8.27
2023-01-29T20:30:11.390Z,9.20
2023-01-29T20:32:54.162Z,8.90
2023-01-29T20:35:38.286Z,8.90
2023-01-29T20:38:21.227Z,7.45
2023-01-29T20:41:05.947Z,7.05
2023-01-29T20:43:50.463Z,6.18
2023-01-29T20:46:35.289Z,7.63
2023-01-29T20:49:18.368Z,11.05
2023-01-29T20:52:01.219Z,7.72
2023-01-29T20:54:44.062Z,10.23
2023-01-29T20:57:26.882Z,7.90
2023-01-29T21:00:10.845Z,9.02
2023-01-29T21:02:55.038Z,9.98
2023-01-29T21:05:37.839Z,12.70
2023-01-29T21:08:21.042Z,8.98
2023-01-29T21:11:04.005Z,8.15
2023-01-29T21:13:46.967Z,8.52
2023-01-29T21:16:29.888Z,7.95
2023-01-29T21:19:15.712Z,9.98
2023-01-29T21:21:59.044Z,8.40
2023-01-29T21:24:41.823Z,11.35
2023-01-29T21:27:25.455Z,9.02
2023-01-29T21:30:09.594Z,7.18
2023-01-29T21:32:52.388Z,7.72
2023-01-29T21:35:38.392Z,8.43
2023-01-29T21:38:21.187Z,7.78
2023-01-29T21:41:05.926Z,7.88
2023-01-29T21:43:47.785Z,10.88
2023-01-29T21:46:30.588Z,10.65
2023-01-29T21:49:13.380Z,9.23
2023-01-29T21:51:57.628Z,9.25
2023-01-29T21:54:41.019Z,10.20
2023-01-29T21:57:26.498Z,10.20
2023-01-29T22:00:11.135Z,8.52
2023-01-29T22:02:54.085Z,9.95
2023-01-29T22:05:36.935Z,8.25
2023-01-29T22:08:21.534Z,7.85
2023-01-29T22:11:06.981Z,6.50
2023-01-29T22:13:49.913Z,10.23
2023-01-29T22:16:32.773Z,9.27
2023-01-29T22:19:15.630Z,9.52
2023-01-29T22:21:58.483Z,19.58
2023-01-29T22:24:44.705Z,12.43
2023-01-29T22:27:27.570Z,10.35
2023-01-29T22:30:11.729Z,10.43
2023-01-29T22:32:54.586Z,11.05
2023-01-29T22:35:37.456Z,10.48
2023-01-29T22:38:20.301Z,12.32
2023-01-29T22:41:04.616Z,10.80
2023-01-29T22:46:30.090Z,9.52
2023-01-29T22:49:13.163Z,9.82
2023-01-29T22:55:04.367Z,11.18
2023-01-29T22:57:49.731Z,10.38
2023-01-29T23:00:32.596Z,12.38
2023-01-29T23:03:15.362Z,13.05
2023-01-29T23:05:58.161Z,9.93
2023-01-29T23:08:41.187Z,10.18
2023-01-29T23:11:25.423Z,10.77
2023-01-29T23:14:08.218Z,8.95
2023-01-29T23:16:51.039Z,10.82
2023-01-29T23:19:33.893Z,12.48
2023-01-29T23:22:16.679Z,11.98
2023-01-29T23:25:00.300Z,13.57
2023-01-29T23:27:43.473Z,14.05
2023-01-29T23:30:26.324Z,11.63
2023-01-29T23:33:11.919Z,11.23
2023-01-29T23:35:55.024Z,12.07
2023-01-29T23:38:37.828Z,11.70
2023-01-29T23:41:21.271Z,11.63
2023-01-29T23:44:05.935Z,11.60
2023-01-29T23:46:48.819Z,9.85
2023-01-29T23:49:31.643Z,11.98
2023-01-29T23:52:14.454Z,12.13
2023-01-29T23:54:57.259Z,14.35
2023-01-29T23:57:40.074Z,15.18
